Almedia, Pennsylvania
Current Conditions -  °F | °C
As of 7:55 PM on Monday 26 Jan 2015 (Local Time) from KHZL Reporting Station
Light Snow Light Snow  
Wind Chill: 14°   Ceiling: 3900
Heat Index: 23°   Visibility: 5mi
Dew Point: 19°   Wind: 8mph
Humidity: 86%   Direction: 70°ENE
Pressure: 29.76"   Gusts: NA
Location:  41.0301°N, 76.4558°W
Report Text: KHZL 270055Z AUTO 07007KT 5SM -SN SCT011 SCT020 OVC039 M05/M07 A2976 RMK AO2 LTG DSNT S
Loading
Personal Weather Stations






























Interactive Weather Map New forecast layout! Learn more

10-Day Weather Forecast

Advertisements
Track Severe Weather on mobile